createdAt,value
2017-08-31T00:02:26.714Z,7.10
2017-08-31T00:04:55.174Z,7.20
2017-08-31T00:07:23.519Z,7.73
2017-08-31T00:09:51.865Z,7.83
2017-08-31T00:12:20.256Z,7.70
2017-08-31T00:14:48.586Z,6.93
2017-08-31T00:17:16.951Z,6.93
2017-08-31T00:19:45.339Z,7.30
2017-08-31T00:22:13.906Z,7.97
2017-08-31T00:24:42.294Z,8.10
2017-08-31T00:27:10.635Z,8.20
2017-08-31T00:29:39.083Z,8.00
2017-08-31T00:32:07.429Z,8.13
2017-08-31T00:34:35.958Z,8.27
2017-08-31T00:37:04.304Z,8.73
2017-08-31T00:39:32.637Z,8.93
2017-08-31T00:42:01.038Z,8.47
2017-08-31T00:44:29.377Z,7.87
2017-08-31T00:46:57.787Z,8.50
2017-08-31T00:49:26.174Z,8.83
2017-08-31T00:51:54.515Z,7.97
2017-08-31T00:54:22.898Z,8.20
2017-08-31T00:56:51.240Z,9.20
2017-08-31T00:59:19.674Z,9.77
2017-08-31T01:01:48.019Z,9.30
2017-08-31T01:04:16.458Z,11.20
2017-08-31T01:06:44.856Z,11.00
2017-08-31T01:09:13.234Z,9.87
2017-08-31T01:11:41.591Z,10.27
2017-08-31T01:14:10.019Z,10.00
2017-08-31T01:16:38.395Z,9.97
2017-08-31T01:19:06.753Z,11.60
2017-08-31T01:21:35.206Z,12.37
2017-08-31T01:24:03.590Z,12.87
2017-08-31T01:26:32.085Z,12.37
2017-08-31T01:29:00.435Z,9.90
2017-08-31T01:31:28.857Z,9.73
2017-08-31T01:33:57.268Z,11.10
2017-08-31T01:36:25.642Z,9.80
2017-08-31T01:38:53.992Z,9.60
2017-08-31T01:41:22.379Z,10.77
2017-08-31T01:43:50.713Z,9.87
2017-08-31T01:46:19.082Z,9.83
2017-08-31T01:48:47.418Z,9.53
2017-08-31T01:51:15.769Z,9.23
2017-08-31T01:53:44.103Z,9.50
2017-08-31T01:56:12.442Z,9.03
2017-08-31T01:58:40.870Z,8.80
2017-08-31T02:01:09.231Z,7.60
2017-08-31T02:03:37.597Z,8.43
2017-08-31T02:06:06.040Z,8.50
2017-08-31T02:08:34.370Z,7.83
2017-08-31T02:11:02.822Z,6.87
2017-08-31T02:13:31.205Z,6.30
2017-08-31T02:15:59.582Z,6.90
2017-08-31T02:18:27.931Z,8.03
2017-08-31T02:20:56.304Z,7.13
2017-08-31T02:23:24.677Z,7.13
2017-08-31T02:25:53.093Z,7.23
2017-08-31T02:28:21.559Z,7.90
2017-08-31T02:30:49.949Z,6.70
2017-08-31T02:33:18.281Z,7.93
2017-08-31T02:35:46.622Z,6.23
2017-08-31T02:38:14.966Z,6.17
2017-08-31T02:40:43.430Z,5.80
2017-08-31T02:43:11.764Z,6.43
2017-08-31T02:45:40.207Z,6.33
2017-08-31T02:48:08.556Z,6.10
2017-08-31T02:50:36.925Z,6.73
2017-08-31T02:53:05.262Z,4.87
2017-08-31T02:55:33.602Z,5.40
2017-08-31T02:58:01.968Z,5.67
2017-08-31T03:00:30.305Z,4.73
2017-08-31T03:02:59.215Z,5.37
2017-08-31T03:05:27.971Z,4.83
2017-08-31T03:07:57.745Z,4.93
2017-08-31T03:10:26.999Z,5.10
2017-08-31T03:12:56.360Z,5.83
2017-08-31T03:15:26.087Z,21.87
2017-08-31T03:17:54.998Z,8.97
2017-08-31T03:20:23.382Z,8.20
2017-08-31T03:22:51.721Z,9.00
2017-08-31T03:25:20.093Z,11.40
2017-08-31T03:27:48.439Z,9.97
2017-08-31T03:30:16.787Z,9.57
2017-08-31T03:32:45.134Z,8.60
2017-08-31T03:35:13.490Z,10.17
2017-08-31T03:37:41.826Z,9.90
2017-08-31T03:40:10.231Z,8.77
2017-08-31T03:42:38.657Z,9.83
2017-08-31T03:45:07.123Z,9.30
2017-08-31T03:47:35.461Z,17.83
2017-08-31T03:50:03.810Z,11.40
2017-08-31T03:52:32.163Z,13.03
2017-08-31T03:55:00.598Z,12.90
2017-08-31T03:57:29.284Z,10.80
2017-08-31T03:59:57.691Z,9.43
2017-08-31T04:02:26.058Z,9.00
2017-08-31T04:04:54.430Z,9.10
2017-08-31T04:07:22.771Z,7.50
2017-08-31T04:09:51.234Z,7.33
2017-08-31T04:12:19.582Z,7.07
2017-08-31T04:14:47.939Z,6.43
2017-08-31T04:17:16.305Z,6.67
2017-08-31T04:19:44.712Z,5.27
2017-08-31T04:22:13.112Z,6.20
2017-08-31T04:24:41.822Z,5.70
2017-08-31T04:27:10.199Z,5.40
2017-08-31T04:29:38.579Z,4.47
2017-08-31T04:32:06.962Z,4.67
2017-08-31T04:34:35.374Z,5.30
2017-08-31T04:37:03.751Z,5.10
2017-08-31T04:39:32.242Z,5.00
2017-08-31T04:42:00.579Z,5.30
2017-08-31T04:44:29.029Z,4.73
2017-08-31T04:46:57.414Z,5.10
2017-08-31T04:49:25.824Z,4.73
2017-08-31T04:51:54.199Z,4.20
2017-08-31T04:54:22.557Z,5.27
2017-08-31T04:56:51.082Z,4.20
2017-08-31T04:59:19.478Z,5.47
2017-08-31T05:01:47.814Z,5.23
2017-08-31T05:04:16.158Z,6.20
2017-08-31T05:06:44.579Z,5.80
2017-08-31T05:09:12.929Z,5.77
2017-08-31T05:11:41.275Z,5.77
2017-08-31T05:14:09.616Z,6.07
2017-08-31T05:16:37.991Z,5.40
2017-08-31T05:19:06.332Z,5.53
2017-08-31T05:21:34.697Z,5.70
2017-08-31T05:24:03.040Z,5.37
2017-08-31T05:26:31.378Z,5.77
2017-08-31T05:28:59.736Z,5.10
2017-08-31T05:31:28.087Z,5.47
2017-08-31T05:33:56.418Z,5.00
2017-08-31T05:36:24.782Z,5.47
2017-08-31T05:38:53.115Z,5.53
2017-08-31T05:41:21.464Z,5.30
2017-08-31T05:43:49.837Z,5.90
2017-08-31T05:46:18.177Z,5.60
2017-08-31T05:48:46.538Z,6.20
2017-08-31T05:51:14.926Z,4.70
2017-08-31T05:53:43.259Z,4.70
2017-08-31T05:56:11.602Z,3.70
2017-08-31T05:58:39.946Z,3.40
2017-08-31T06:01:08.441Z,4.40
2017-08-31T06:03:36.778Z,5.10
2017-08-31T06:06:05.110Z,3.53
2017-08-31T06:08:33.452Z,3.90
2017-08-31T06:11:01.785Z,3.50
2017-08-31T06:13:30.127Z,3.80
2017-08-31T06:15:58.467Z,4.07
2017-08-31T06:18:26.902Z,3.60
2017-08-31T06:20:55.235Z,3.70
2017-08-31T06:23:23.646Z,3.90
2017-08-31T06:25:52.038Z,4.00
2017-08-31T06:28:20.444Z,4.00
2017-08-31T06:30:48.821Z,3.83
2017-08-31T06:33:17.227Z,3.10
2017-08-31T06:35:45.562Z,3.13
2017-08-31T06:38:13.902Z,2.97
2017-08-31T06:40:42.270Z,2.67
2017-08-31T06:43:10.605Z,2.87
2017-08-31T06:45:38.973Z,2.80
2017-08-31T06:48:07.462Z,2.57
2017-08-31T06:50:35.815Z,1.83
2017-08-31T06:53:04.248Z,2.10
2017-08-31T06:55:32.650Z,1.47
2017-08-31T06:58:01.066Z,1.80
2017-08-31T07:00:29.391Z,1.50
2017-08-31T07:02:57.811Z,1.40
2017-08-31T07:05:26.205Z,0.60
2017-08-31T07:07:54.596Z,1.00
2017-08-31T07:10:23.014Z,0.80
2017-08-31T07:12:51.375Z,0.50
2017-08-31T07:15:19.090Z,0.40
2017-08-31T07:17:47.247Z,0.40
2017-08-31T07:20:15.644Z,0.40
2017-08-31T07:22:44.022Z,0.30
2017-08-31T07:25:12.353Z,0.50
2017-08-31T07:27:41.246Z,0.40
2017-08-31T07:30:09.627Z,0.57
2017-08-31T07:32:37.998Z,0.30
2017-08-31T07:35:06.350Z,0.40
2017-08-31T07:37:34.780Z,0.40
2017-08-31T07:40:03.113Z,0.40
2017-08-31T07:42:31.471Z,0.30
2017-08-31T07:44:59.855Z,0.40
2017-08-31T07:47:28.183Z,0.30
2017-08-31T07:49:56.541Z,0.40
2017-08-31T07:52:24.907Z,0.30
2017-08-31T07:54:53.311Z,0.40
2017-08-31T07:57:21.695Z,0.30
2017-08-31T07:59:50.021Z,0.30
2017-08-31T08:02:18.353Z,0.40
2017-08-31T08:04:47.703Z,0.33
2017-08-31T08:07:16.033Z,0.40
2017-08-31T08:09:44.394Z,0.30
2017-08-31T08:12:12.770Z,0.50
2017-08-31T08:14:41.267Z,0.30
2017-08-31T08:17:09.659Z,0.30
2017-08-31T08:19:37.994Z,0.30
2017-08-31T08:22:06.339Z,0.30
2017-08-31T08:24:34.829Z,0.40
2017-08-31T08:27:03.205Z,0.30
2017-08-31T08:29:31.673Z,0.50
2017-08-31T08:32:00.010Z,0.40
2017-08-31T08:34:28.342Z,0.40
2017-08-31T08:36:56.781Z,0.60
2017-08-31T08:39:25.173Z,0.50
2017-08-31T08:41:53.546Z,0.63
2017-08-31T08:44:21.873Z,0.47
2017-08-31T08:46:50.248Z,0.67
2017-08-31T08:49:19.006Z,0.60
2017-08-31T08:51:47.352Z,0.90
2017-08-31T08:54:15.705Z,0.50
2017-08-31T08:56:44.123Z,0.70
2017-08-31T08:59:12.518Z,0.80
2017-08-31T09:01:40.910Z,1.00
2017-08-31T09:04:09.294Z,1.20
2017-08-31T09:06:37.631Z,0.80
2017-08-31T09:09:06.155Z,0.60
2017-08-31T09:11:34.531Z,1.00
2017-08-31T09:14:02.967Z,0.60
2017-08-31T09:16:31.354Z,0.80
2017-08-31T09:18:59.683Z,0.83
2017-08-31T09:21:28.043Z,0.40
2017-08-31T09:23:56.431Z,0.80
2017-08-31T09:26:24.767Z,0.77
2017-08-31T09:28:53.201Z,1.07
2017-08-31T09:31:21.594Z,1.00
2017-08-31T09:33:49.930Z,1.03
2017-08-31T09:36:18.289Z,0.50
2017-08-31T09:38:46.777Z,0.77
2017-08-31T09:41:15.114Z,0.40
2017-08-31T09:43:43.450Z,0.50
2017-08-31T09:46:11.846Z,0.80
2017-08-31T09:48:40.182Z,0.60
2017-08-31T09:51:08.588Z,0.70
2017-08-31T09:53:37.018Z,0.60
2017-08-31T09:56:05.423Z,1.53
2017-08-31T09:58:33.901Z,0.80
2017-08-31T10:01:02.463Z,0.90
2017-08-31T10:03:30.897Z,1.20
2017-08-31T10:05:59.226Z,1.10
2017-08-31T10:08:27.596Z,0.97
2017-08-31T10:10:55.936Z,1.43
2017-08-31T10:13:24.358Z,1.33
2017-08-31T10:15:52.720Z,1.27
2017-08-31T10:18:21.061Z,1.40
2017-08-31T10:20:49.400Z,1.33
2017-08-31T10:23:17.770Z,1.20
2017-08-31T10:25:46.161Z,1.30
2017-08-31T11:20:37.554Z,3.60
2017-08-31T11:23:06.038Z,3.40
2017-08-31T11:25:34.387Z,3.50
2017-08-31T11:28:02.739Z,2.90
2017-08-31T11:30:31.128Z,3.87
2017-08-31T11:32:59.408Z,3.03
2017-08-31T11:35:27.868Z,3.60
2017-08-31T11:37:56.134Z,3.97
2017-08-31T11:40:24.478Z,4.40
2017-08-31T11:42:52.814Z,4.47
2017-08-31T11:45:21.266Z,5.67
2017-08-31T11:47:49.650Z,5.40
2017-08-31T11:50:18.058Z,5.17
2017-08-31T11:52:46.435Z,4.97
2017-08-31T11:55:14.826Z,5.33
2017-08-31T11:57:43.219Z,5.70
2017-08-31T12:00:11.585Z,4.80
2017-08-31T12:02:39.998Z,5.03
2017-08-31T12:05:08.393Z,4.20
2017-08-31T12:07:36.758Z,4.10
2017-08-31T12:10:05.090Z,4.50
2017-08-31T12:12:33.455Z,4.23
2017-08-31T12:15:01.790Z,4.77
2017-08-31T12:17:30.159Z,4.80
2017-08-31T12:19:58.491Z,5.10
2017-08-31T12:22:26.854Z,5.30
2017-08-31T12:24:55.170Z,5.60
2017-08-31T12:27:23.512Z,6.57
2017-08-31T12:29:51.839Z,6.67
2017-08-31T12:32:20.197Z,6.90
2017-08-31T12:34:48.539Z,8.70
2017-08-31T12:37:16.865Z,9.17
2017-08-31T12:39:45.286Z,9.77
2017-08-31T12:42:13.648Z,10.00
2017-08-31T12:44:42.047Z,9.07
2017-08-31T12:47:10.390Z,9.30
2017-08-31T12:49:38.758Z,11.07
2017-08-31T12:52:07.214Z,10.20
2017-08-31T12:54:35.602Z,8.50
2017-08-31T12:57:03.979Z,9.80
2017-08-31T12:59:32.382Z,10.00
2017-08-31T13:02:00.734Z,9.27
2017-08-31T13:04:29.079Z,9.67
2017-08-31T13:06:57.450Z,9.63
2017-08-31T13:09:25.778Z,10.80
2017-08-31T13:11:54.134Z,9.47
2017-08-31T13:14:22.502Z,6.90
2017-08-31T13:16:50.829Z,4.40
2017-08-31T13:19:19.210Z,4.70
2017-08-31T13:21:47.546Z,4.50
2017-08-31T13:24:15.921Z,5.93
2017-08-31T13:26:44.646Z,6.07
2017-08-31T13:29:13.088Z,6.53
2017-08-31T13:31:41.457Z,7.00
2017-08-31T13:34:09.862Z,8.30
2017-08-31T13:36:38.258Z,9.27
2017-08-31T13:39:06.618Z,8.20
2017-08-31T13:41:35.075Z,9.10
2017-08-31T13:44:03.463Z,9.53
2017-08-31T13:46:31.801Z,9.57
2017-08-31T13:49:00.223Z,10.07
2017-08-31T13:51:28.599Z,9.70
2017-08-31T13:53:56.943Z,7.33
2017-08-31T13:56:25.315Z,6.63
2017-08-31T13:58:53.675Z,5.53
2017-08-31T14:01:22.038Z,5.30
2017-08-31T14:03:50.475Z,4.80
2017-08-31T14:06:18.825Z,5.20
2017-08-31T14:08:47.204Z,4.87
2017-08-31T14:11:15.634Z,5.40
2017-08-31T14:13:44.027Z,4.00
2017-08-31T14:16:12.357Z,3.80
2017-08-31T14:18:40.736Z,3.77
2017-08-31T14:21:09.099Z,3.43
2017-08-31T14:23:37.481Z,3.67
2017-08-31T14:26:05.943Z,3.70
2017-08-31T14:28:34.403Z,4.90
2017-08-31T14:31:02.800Z,5.20
2017-08-31T14:33:31.129Z,4.47
2017-08-31T14:35:59.501Z,3.70
2017-08-31T14:38:27.931Z,3.40
2017-08-31T14:40:56.358Z,3.43
2017-08-31T14:43:24.705Z,4.50
2017-08-31T14:45:53.108Z,3.80
2017-08-31T14:48:21.535Z,4.03
2017-08-31T14:50:49.889Z,4.00
2017-08-31T14:53:18.282Z,4.63
2017-08-31T14:55:46.614Z,5.13
2017-08-31T14:58:14.974Z,6.30
2017-08-31T15:00:43.315Z,5.57
2017-08-31T15:03:11.750Z,4.60
2017-08-31T15:05:40.111Z,4.53
2017-08-31T15:08:08.525Z,5.87
2017-08-31T15:10:36.934Z,5.90
2017-08-31T15:13:05.466Z,6.80
2017-08-31T15:15:33.817Z,7.73
2017-08-31T15:18:02.224Z,8.10
2017-08-31T15:20:30.585Z,7.43
2017-08-31T15:22:58.918Z,7.40
2017-08-31T15:25:27.259Z,8.13
2017-08-31T15:27:55.674Z,9.67
2017-08-31T15:30:24.051Z,9.03
2017-08-31T15:32:52.459Z,8.73
2017-08-31T15:35:20.818Z,9.83
2017-08-31T15:37:49.161Z,10.47
2017-08-31T15:40:17.554Z,11.70
2017-08-31T15:42:45.911Z,9.70
2017-08-31T15:45:14.291Z,10.80
2017-08-31T15:47:42.690Z,10.43
2017-08-31T15:50:11.053Z,10.90
2017-08-31T15:52:39.410Z,11.07
2017-08-31T15:55:07.771Z,12.00
2017-08-31T15:57:36.168Z,11.80
2017-08-31T16:00:04.558Z,10.67
2017-08-31T16:02:32.940Z,11.00
2017-08-31T16:05:01.362Z,11.37
2017-08-31T16:07:29.710Z,11.50
2017-08-31T16:09:58.115Z,11.73
2017-08-31T16:12:26.462Z,11.63
2017-08-31T16:14:54.849Z,10.57
2017-08-31T16:17:23.193Z,10.87
2017-08-31T16:19:51.670Z,12.10
2017-08-31T16:22:20.086Z,13.07
2017-08-31T16:24:48.467Z,11.40
2017-08-31T16:27:17.013Z,11.20
2017-08-31T16:29:45.385Z,12.80
2017-08-31T16:32:13.740Z,12.40
2017-08-31T16:34:42.116Z,13.03
2017-08-31T16:37:10.552Z,14.57
2017-08-31T16:39:38.938Z,14.03
2017-08-31T16:42:07.298Z,14.20
2017-08-31T16:44:35.685Z,15.40
2017-08-31T16:47:04.025Z,14.10
2017-08-31T16:49:32.471Z,16.40
2017-08-31T16:52:00.811Z,14.60
2017-08-31T16:54:29.262Z,16.43
2017-08-31T16:56:57.682Z,15.77
2017-08-31T16:59:26.038Z,17.83
2017-08-31T17:01:54.410Z,17.10
2017-08-31T17:04:22.786Z,17.83
2017-08-31T17:06:51.116Z,17.70
2017-08-31T17:09:19.462Z,17.30
2017-08-31T17:11:47.935Z,19.37
2017-08-31T17:14:16.377Z,19.77
2017-08-31T17:16:44.777Z,21.37
2017-08-31T17:19:13.166Z,14.17
2017-08-31T17:21:41.505Z,14.07
2017-08-31T17:24:09.981Z,10.80
2017-08-31T17:26:38.450Z,12.60
2017-08-31T17:29:06.878Z,11.93
2017-08-31T17:31:35.436Z,12.87
2017-08-31T17:34:03.917Z,11.00
2017-08-31T17:36:32.309Z,9.80
2017-08-31T17:39:00.684Z,11.83
2017-08-31T17:41:29.093Z,10.20
2017-08-31T17:43:57.486Z,10.77
2017-08-31T17:46:25.891Z,11.17
2017-08-31T17:48:54.247Z,10.37
2017-08-31T17:51:22.671Z,11.90
2017-08-31T17:53:51.051Z,15.13
2017-08-31T17:56:19.446Z,14.23
2017-08-31T17:58:47.818Z,14.53
2017-08-31T18:01:16.230Z,16.67
2017-08-31T18:03:44.618Z,15.33
2017-08-31T18:06:13.002Z,16.80
2017-08-31T18:08:41.490Z,17.50
2017-08-31T18:11:09.901Z,15.97
2017-08-31T18:13:38.290Z,14.83
2017-08-31T18:16:06.629Z,16.07
2017-08-31T18:18:35.069Z,15.57
2017-08-31T18:21:03.444Z,14.90
2017-08-31T18:23:31.953Z,15.47
2017-08-31T18:26:00.340Z,13.70
2017-08-31T18:28:28.713Z,14.47
2017-08-31T18:30:57.174Z,13.50
2017-08-31T18:33:25.632Z,13.93
2017-08-31T18:35:54.019Z,14.37
2017-08-31T18:38:22.358Z,14.93
2017-08-31T18:40:50.800Z,15.50
2017-08-31T18:43:19.189Z,15.50
2017-08-31T18:45:47.534Z,14.70
2017-08-31T18:48:15.966Z,15.10
2017-08-31T18:50:44.314Z,14.50
2017-08-31T18:53:12.751Z,13.73
2017-08-31T18:55:41.147Z,14.00
2017-08-31T18:58:09.510Z,13.07
2017-08-31T19:00:37.895Z,14.80
2017-08-31T19:03:06.315Z,14.00
2017-08-31T19:05:34.666Z,13.73
2017-08-31T19:08:03.115Z,13.70
2017-08-31T19:10:31.531Z,13.23
2017-08-31T19:13:00.081Z,15.50
2017-08-31T19:15:28.538Z,13.37
2017-08-31T19:17:56.974Z,13.70
2017-08-31T19:20:25.379Z,12.77
2017-08-31T19:22:54.097Z,14.40
2017-08-31T19:25:22.466Z,13.67
2017-08-31T19:27:50.987Z,14.33
2017-08-31T19:30:19.343Z,14.63
2017-08-31T19:32:47.751Z,14.00
2017-08-31T19:35:16.131Z,13.97
2017-08-31T19:37:44.853Z,15.03
2017-08-31T19:40:13.319Z,14.97
2017-08-31T19:42:41.717Z,14.70
2017-08-31T19:45:10.089Z,15.70
2017-08-31T19:47:38.457Z,16.20
2017-08-31T19:50:06.911Z,16.13
2017-08-31T19:52:35.291Z,15.10
2017-08-31T19:55:03.641Z,15.50
2017-08-31T19:57:32.005Z,16.57
2017-08-31T20:00:00.446Z,17.47
2017-08-31T20:02:28.794Z,16.50
2017-08-31T20:04:57.231Z,16.33
2017-08-31T20:07:25.580Z,16.00
2017-08-31T20:09:53.922Z,16.90
2017-08-31T20:12:22.306Z,17.20
2017-08-31T20:14:50.650Z,17.57
2017-08-31T20:17:18.998Z,17.17
2017-08-31T20:19:47.342Z,18.20
2017-08-31T20:22:15.757Z,17.60
2017-08-31T20:24:44.135Z,17.57
2017-08-31T20:27:12.718Z,18.63
2017-08-31T20:29:41.147Z,19.20
2017-08-31T20:32:09.546Z,19.10
2017-08-31T20:34:37.934Z,19.07
2017-08-31T20:37:06.427Z,19.00
2017-08-31T20:39:34.766Z,19.93
2017-08-31T20:42:03.118Z,21.20
2017-08-31T20:44:31.486Z,20.73
2017-08-31T20:46:59.891Z,20.80
2017-08-31T20:49:28.266Z,22.80
2017-08-31T20:51:56.679Z,22.57
2017-08-31T20:54:25.165Z,21.33
2017-08-31T20:56:53.575Z,22.10
2017-08-31T20:59:21.921Z,22.37
2017-08-31T21:01:50.337Z,22.53
2017-08-31T21:04:18.686Z,22.60
2017-08-31T21:06:47.071Z,22.27
2017-08-31T21:09:15.423Z,22.10
2017-08-31T21:11:43.793Z,22.27
2017-08-31T21:14:12.182Z,22.33
2017-08-31T21:16:40.541Z,24.63
2017-08-31T21:19:09.103Z,24.23
2017-08-31T21:21:37.434Z,25.03
2017-08-31T21:24:05.798Z,24.67
2017-08-31T21:26:34.178Z,22.93
2017-08-31T21:29:02.558Z,23.83
2017-08-31T21:31:30.944Z,23.20
2017-08-31T21:33:59.340Z,24.00
2017-08-31T21:36:28.687Z,24.43
2017-08-31T21:38:57.073Z,24.20
2017-08-31T21:41:25.413Z,25.00
2017-08-31T21:43:53.806Z,24.87
2017-08-31T21:46:22.189Z,27.67
2017-08-31T21:48:50.586Z,26.03
2017-08-31T21:51:18.929Z,25.00
2017-08-31T21:53:47.305Z,25.97
2017-08-31T21:56:15.786Z,25.57
2017-08-31T21:58:44.181Z,24.93
2017-08-31T22:01:12.518Z,27.33
2017-08-31T22:03:40.944Z,24.33
2017-08-31T22:06:09.302Z,25.23
2017-08-31T22:08:37.654Z,24.87
2017-08-31T22:11:06.003Z,24.90
2017-08-31T22:13:34.402Z,26.30
2017-08-31T22:16:03.217Z,26.30
2017-08-31T22:18:31.592Z,25.03
2017-08-31T22:20:59.978Z,25.27
2017-08-31T22:23:28.553Z,24.73
2017-08-31T22:25:56.886Z,25.93
2017-08-31T22:28:25.221Z,26.00
2017-08-31T22:30:53.567Z,26.80
2017-08-31T22:33:21.934Z,26.10
2017-08-31T22:35:50.323Z,26.33
2017-08-31T22:38:18.733Z,28.53
2017-08-31T22:40:47.238Z,26.63
2017-08-31T22:43:15.601Z,28.13
2017-08-31T22:45:43.995Z,28.30
2017-08-31T22:48:12.391Z,30.00
2017-08-31T22:50:40.788Z,27.00
2017-08-31T22:53:09.145Z,27.70
2017-08-31T22:55:37.490Z,29.33
2017-08-31T22:58:12.504Z,29.93
2017-08-31T23:00:40.842Z,28.63
2017-08-31T23:03:09.182Z,29.37
2017-08-31T23:05:37.519Z,29.57
2017-08-31T23:08:05.866Z,30.47
2017-08-31T23:10:34.232Z,29.50
2017-08-31T23:13:02.647Z,29.50
2017-08-31T23:15:30.982Z,29.33
2017-08-31T23:17:59.322Z,29.73
2017-08-31T23:20:27.690Z,29.70
2017-08-31T23:22:56.047Z,30.10
2017-08-31T23:25:24.399Z,29.20
2017-08-31T23:27:52.790Z,28.97
2017-08-31T23:30:21.159Z,26.87
2017-08-31T23:32:49.502Z,29.17
2017-08-31T23:35:17.870Z,28.77
2017-08-31T23:37:46.258Z,26.70
2017-08-31T23:40:14.626Z,26.47
2017-08-31T23:42:42.958Z,27.60
2017-08-31T23:45:11.330Z,26.43
2017-08-31T23:47:39.714Z,26.80
2017-08-31T23:50:08.106Z,25.97
2017-08-31T23:52:36.470Z,26.70
2017-08-31T23:55:04.898Z,26.30
2017-08-31T23:57:33.299Z,24.10
